Time;durP1;ratioP1;P1;durP2;ratioP2;P2;SDS_P1;SDS_P2;PMS_P1;PMS_P2;Temp;Humidity;BMP_temperature;BMP_pressure;BME280_temperature;BME280_humidity;BME280_pressure;Samples;Min_cycle;Max_cycle;Signal;HPM_P1;HPM_P2
2021/04/13 00:01:11;;;;;;;4.95;2.85;;;14.50;99.90;;;;;;5116519;28;20045;-65
2021/04/13 00:03:42;;;;;;;5.35;3.08;;;14.50;99.90;;;;;;5116237;28;20043;-65
2021/04/13 00:06:12;;;;;;;4.25;3.03;;;14.50;99.90;;;;;;5116905;28;20077;-65
2021/04/13 00:08:41;;;;;;;6.05;3.10;;;14.50;99.90;;;;;;5098551;28;20051;-65
2021/04/13 00:11:12;;;;;;;7.95;2.72;;;14.60;99.90;;;;;;5098207;28;20047;-65
2021/04/13 00:13:41;;;;;;;5.45;3.47;;;14.40;99.90;;;;;;5097275;28;20040;-65
2021/04/13 00:16:17;;;;;;;5.97;3.45;;;14.40;99.90;;;;;;5080898;28;20043;-65
2021/04/13 00:18:52;;;;;;;6.25;2.35;;;14.50;99.90;;;;;;5099229;28;20056;-65
2021/04/13 00:21:26;;;;;;;9.75;3.67;;;14.40;99.90;;;;;;5116113;28;20043;-65
2021/04/13 00:23:55;;;;;;;9.90;2.88;;;14.40;99.90;;;;;;5098381;28;20078;-65
2021/04/13 00:26:27;;;;;;;5.38;3.20;;;14.30;99.90;;;;;;5081057;28;20496;-65
2021/04/13 00:29:02;;;;;;;5.60;3.60;;;14.30;99.90;;;;;;5098199;28;20143;-65
2021/04/13 00:31:42;;;;;;;24.90;4.60;;;14.20;99.90;;;;;;5116069;28;20075;-65
2021/04/13 00:34:20;;;;;;;4.93;3.03;;;14.20;99.90;;;;;;5097878;28;20056;-65
2021/04/13 00:36:50;;;;;;;9.07;3.08;;;14.20;99.90;;;;;;5097869;28;20048;-65
2021/04/13 00:39:22;;;;;;;4.60;3.17;;;14.20;99.90;;;;;;5080710;28;20086;-65
2021/04/13 00:42:03;;;;;;;8.68;5.07;;;14.20;99.90;;;;;;5115756;28;20055;-65
2021/04/13 00:44:34;;;;;;;11.30;3.17;;;14.20;99.90;;;;;;5115749;28;20109;-65
2021/04/13 00:47:06;;;;;;;4.43;2.95;;;14.20;99.90;;;;;;5097529;28;20047;-65
2021/04/13 00:49:38;;;;;;;5.97;3.28;;;14.30;99.90;;;;;;5080916;28;20044;-65
2021/04/13 00:52:12;;;;;;;6.63;3.92;;;14.30;99.90;;;;;;5097581;28;20131;-65
2021/04/13 00:54:58;;;;;;;5.50;3.08;;;14.30;99.90;;;;;;5097754;28;20047;-65
2021/04/13 00:57:46;;;;;;;6.05;3.30;;;14.30;99.90;;;;;;5097537;28;20071;-65
2021/04/13 01:00:27;;;;;;;5.28;3.10;;;14.20;99.90;;;;;;5115389;28;20055;-64
2021/04/13 01:03:02;;;;;;;7.55;3.97;;;14.10;99.90;;;;;;5080801;28;20051;-65
2021/04/13 01:05:38;;;;;;;3.92;2.72;;;14.10;99.90;;;;;;5115361;28;20044;-65
2021/04/13 01:08:36;;;;;;;5.78;3.13;;;14.00;99.90;;;;;;5115161;28;20052;-65
2021/04/13 01:11:08;;;;;;;4.90;2.95;;;14.00;99.90;;;;;;5085476;28;20478;-65
2021/04/13 01:13:43;;;;;;;9.27;3.30;;;14.00;99.90;;;;;;5115129;28;20402;-65
2021/04/13 01:16:12;;;;;;;5.30;3.10;;;14.00;99.90;;;;;;5115234;28;20058;-65
2021/04/13 01:18:42;;;;;;;5.05;2.83;;;14.00;99.90;;;;;;5113715;28;20068;-65
2021/04/13 01:21:21;;;;;;;4.90;3.95;;;13.90;99.90;;;;;;5097480;28;20128;-65
2021/04/13 01:23:55;;;;;;;6.30;4.03;;;13.90;99.90;;;;;;5113668;28;20055;-65
2021/04/13 01:26:34;;;;;;;6.45;3.40;;;13.90;99.90;;;;;;5063811;28;20043;-65
2021/04/13 01:29:03;;;;;;;4.60;2.60;;;13.90;99.90;;;;;;5096985;28;20040;-65
2021/04/13 01:31:52;;;;;;;7.03;3.42;;;13.90;99.90;;;;;;5113446;28;20047;-65
2021/04/13 01:35:05;;;;;;;5.97;3.75;;;13.90;99.90;;;;;;5080414;28;20134;-65
2021/04/13 01:38:01;;;;;;;6.65;3.65;;;14.00;99.90;;;;;;5032370;28;20521;-65
2021/04/13 01:41:02;;;;;;;5.70;4.55;;;14.00;99.90;;;;;;5079913;28;20047;-65
2021/04/13 01:43:34;;;;;;;6.90;4.05;;;14.00;99.90;;;;;;5096371;28;20489;-65
2021/04/13 01:46:03;;;;;;;6.82;3.97;;;14.00;99.90;;;;;;5113576;28;20075;-65
2021/04/13 01:48:32;;;;;;;8.77;3.72;;;14.00;99.90;;;;;;5113438;28;20400;-65
2021/04/13 01:51:02;;;;;;;4.75;3.13;;;14.00;99.90;;;;;;5113377;28;20047;-65
2021/04/13 01:53:36;;;;;;;6.88;3.53;;;14.10;99.90;;;;;;5079422;28;20108;-65
2021/04/13 01:56:07;;;;;;;5.78;3.72;;;14.00;99.90;;;;;;5114222;28;20075;-65
2021/04/13 01:58:50;;;;;;;7.28;3.35;;;14.00;99.90;;;;;;5114199;28;20043;-65
2021/04/13 02:01:24;;;;;;;7.38;4.18;;;13.90;99.90;;;;;;5096563;28;20071;-65
2021/04/13 02:04:15;;;;;;;9.00;3.67;;;13.90;99.90;;;;;;5096418;28;20047;-64
2021/04/13 02:06:55;;;;;;;8.07;3.85;;;13.90;99.90;;;;;;5096083;28;20051;-64
2021/04/13 02:09:43;;;;;;;5.85;4.07;;;13.90;99.90;;;;;;5096416;28;20059;-64
2021/04/13 02:12:20;;;;;;;5.50;4.10;;;14.00;99.90;;;;;;5096315;28;20129;-65
2021/04/13 02:15:01;;;;;;;8.20;4.10;;;13.90;99.90;;;;;;5113971;28;20040;-65
2021/04/13 02:17:46;;;;;;;10.18;4.68;;;14.00;99.90;;;;;;5114051;28;20060;-65
2021/04/13 02:20:18;;;;;;;8.30;4.95;;;14.00;99.90;;;;;;5114225;28;20134;-65
2021/04/13 02:22:47;;;;;;;7.35;4.53;;;14.00;99.90;;;;;;5114039;28;20079;-64
2021/04/13 02:25:21;;;;;;;7.35;4.63;;;14.00;99.90;;;;;;5095985;28;20394;-65
2021/04/13 02:27:49;;;;;;;7.65;4.47;;;13.90;99.90;;;;;;5113773;28;20040;-65
2021/04/13 02:30:43;;;;;;;6.68;4.97;;;13.80;99.90;;;;;;5095956;28;20054;-65
2021/04/13 02:33:32;;;;;;;8.85;4.95;;;13.70;99.90;;;;;;5113875;28;20083;-65
2021/04/13 02:36:12;;;;;;;7.72;5.38;;;13.80;99.90;;;;;;5095754;28;20063;-65
2021/04/13 02:39:01;;;;;;;6.60;5.03;;;13.80;99.90;;;;;;5103505;28;20094;-65
2021/04/13 02:41:32;;;;;;;9.55;5.70;;;13.80;99.90;;;;;;5117059;28;20047;-65
2021/04/13 02:44:07;;;;;;;13.93;4.97;;;13.80;99.90;;;;;;5118268;28;20533;-65
2021/04/13 02:46:37;;;;;;;6.50;4.38;;;13.90;99.90;;;;;;5100135;28;20058;-65
2021/04/13 02:49:09;;;;;;;9.68;4.97;;;13.90;99.90;;;;;;5099836;28;20124;-65
2021/04/13 02:52:00;;;;;;;7.38;5.15;;;14.00;99.90;;;;;;5083139;28;20051;-65
2021/04/13 02:54:34;;;;;;;7.00;4.35;;;14.00;99.90;;;;;;5118115;28;20410;-65
2021/04/13 02:57:07;;;;;;;10.02;5.53;;;14.00;99.90;;;;;;5117499;28;20108;-65
2021/04/13 02:59:37;;;;;;;10.70;6.30;;;14.10;99.90;;;;;;5117643;28;20071;-65
2021/04/13 03:02:14;;;;;;;8.52;4.40;;;14.00;99.90;;;;;;5099815;28;20083;-65
2021/04/13 03:04:45;;;;;;;7.78;4.57;;;14.10;99.90;;;;;;5082716;28;20051;-65
2021/04/13 03:07:15;;;;;;;7.90;4.65;;;14.10;99.90;;;;;;5082154;28;20047;-65
2021/04/13 03:09:43;;;;;;;12.07;4.88;;;14.10;99.90;;;;;;5082447;28;20393;-65
2021/04/13 03:12:13;;;;;;;7.63;4.93;;;14.20;99.90;;;;;;5116262;28;20048;-65
2021/04/13 03:14:46;;;;;;;7.00;4.80;;;14.10;99.90;;;;;;5117754;28;20043;-65
2021/04/13 03:17:18;;;;;;;12.43;4.15;;;14.10;99.90;;;;;;5117513;28;20055;-65
2021/04/13 03:19:47;;;;;;;13.45;4.55;;;14.20;99.90;;;;;;5117285;28;20055;-65
2021/04/13 03:22:19;;;;;;;6.38;3.70;;;14.10;99.90;;;;;;5099391;28;20083;-65
2021/04/13 03:24:50;;;;;;;9.38;4.38;;;14.10;99.90;;;;;;5099332;28;20047;-65
2021/04/13 03:27:26;;;;;;;12.88;4.60;;;14.10;99.90;;;;;;5099099;28;20056;-65
2021/04/13 03:30:07;;;;;;;6.57;4.18;;;14.10;99.90;;;;;;5117410;28;20059;-65
2021/04/13 03:32:48;;;;;;;8.23;4.13;;;14.00;99.90;;;;;;5098893;28;20062;-65
2021/04/13 03:35:15;;;;;;;5.18;3.95;;;13.90;99.90;;;;;;5116176;28;20051;-65
2021/04/13 03:37:43;;;;;;;7.88;4.45;;;13.80;99.90;;;;;;5098817;28;20047;-64
2021/04/13 03:40:17;;;;;;;9.80;4.97;;;13.80;99.90;;;;;;5099099;28;20044;-64
2021/04/13 03:42:45;;;;;;;9.38;5.07;;;13.80;99.90;;;;;;5116857;28;20108;-65
2021/04/13 03:45:16;;;;;;;11.20;5.07;;;13.80;99.90;;;;;;5115596;28;20053;-64
2021/04/13 03:47:46;;;;;;;7.45;5.53;;;13.80;99.90;;;;;;5116693;28;20130;-65
2021/04/13 03:50:27;;;;;;;7.97;5.80;;;13.80;99.90;;;;;;5116984;28;20096;-65
2021/04/13 03:53:07;;;;;;;7.70;4.72;;;13.70;99.90;;;;;;5116902;28;20052;-65
2021/04/13 03:55:34;;;;;;;8.30;5.45;;;13.70;99.90;;;;;;5115365;28;20043;-64
2021/04/13 03:58:23;;;;;;;12.48;5.88;;;13.70;99.90;;;;;;5098485;28;20039;-65
2021/04/13 04:00:53;;;;;;;9.32;6.53;;;13.70;99.90;;;;;;5115547;28;20162;-65
2021/04/13 04:03:20;;;;;;;11.65;7.97;;;13.70;99.90;;;;;;5081519;28;20044;-64
2021/04/13 04:05:56;;;;;;;14.65;5.78;;;13.60;99.90;;;;;;5098885;28;20050;-65
2021/04/13 04:08:50;;;;;;;8.15;5.82;;;13.60;99.90;;;;;;5098518;28;20054;-65
2021/04/13 04:11:31;;;;;;;9.52;5.53;;;13.60;99.90;;;;;;5098888;28;20130;-65
2021/04/13 04:14:01;;;;;;;7.93;5.72;;;13.60;99.90;;;;;;5115223;28;20096;-64
2021/04/13 04:16:28;;;;;;;9.95;6.85;;;13.60;99.90;;;;;;5116354;28;20091;-65
2021/04/13 04:19:23;;;;;;;11.93;6.80;;;13.60;99.90;;;;;;5099192;28;20584;-65
2021/04/13 04:21:58;;;;;;;10.88;6.30;;;13.60;99.90;;;;;;5115146;28;20048;-65
2021/04/13 04:24:44;;;;;;;11.50;5.95;;;13.70;99.90;;;;;;5098097;28;20082;-64
2021/04/13 04:27:36;;;;;;;8.27;5.95;;;13.70;99.90;;;;;;5064443;28;20050;-66
2021/04/13 04:30:20;;;;;;;11.45;6.35;;;13.70;99.90;;;;;;5098184;28;20047;-66
2021/04/13 04:32:48;;;;;;;12.43;7.18;;;13.70;99.90;;;;;;5098137;28;20126;-66
2021/04/13 04:35:37;;;;;;;10.98;7.07;;;13.70;99.90;;;;;;5098038;28;20047;-66
2021/04/13 04:38:23;;;;;;;11.77;7.35;;;13.70;99.90;;;;;;5115827;28;20052;-65
2021/04/13 04:40:52;;;;;;;10.43;6.68;;;13.80;99.90;;;;;;5115833;28;20089;-65
2021/04/13 04:43:46;;;;;;;9.32;6.13;;;13.80;99.90;;;;;;5097674;28;20507;-65
2021/04/13 04:46:35;;;;;;;10.75;5.68;;;13.70;99.90;;;;;;5115611;28;20402;-65
2021/04/13 04:49:11;;;;;;;10.77;8.23;;;13.70;99.90;;;;;;5080707;28;20048;-65
2021/04/13 04:51:39;;;;;;;10.93;5.93;;;13.80;99.90;;;;;;5116051;28;20117;-65
2021/04/13 04:54:07;;;;;;;17.33;6.85;;;13.70;99.90;;;;;;5080574;28;20052;-65
2021/04/13 04:56:35;;;;;;;14.85;7.93;;;13.60;99.90;;;;;;5080281;28;20532;-64
2021/04/13 04:59:02;;;;;;;9.77;6.45;;;13.60;99.90;;;;;;5113851;28;20044;-65
2021/04/13 05:01:30;;;;;;;12.77;7.72;;;13.60;99.90;;;;;;5114042;28;20108;-65
2021/04/13 05:03:57;;;;;;;12.23;6.43;;;13.70;99.90;;;;;;5114217;28;20495;-65
2021/04/13 05:06:25;;;;;;;8.60;5.72;;;13.70;99.90;;;;;;5080611;28;20059;-65
2021/04/13 05:08:54;;;;;;;9.02;6.95;;;13.70;99.90;;;;;;5097190;28;20504;-65
2021/04/13 05:11:23;;;;;;;9.68;5.88;;;13.70;99.90;;;;;;5115001;28;20039;-65
2021/04/13 05:13:52;;;;;;;11.77;6.95;;;13.70;99.90;;;;;;5080225;28;20054;-65
2021/04/13 05:16:20;;;;;;;11.80;6.63;;;13.70;99.90;;;;;;5115368;28;20394;-65
2021/04/13 05:18:47;;;;;;;14.43;6.55;;;13.70;99.90;;;;;;5080084;28;20041;-65
2021/04/13 05:21:15;;;;;;;13.02;7.03;;;13.80;99.90;;;;;;5115363;28;20047;-65
2021/04/13 05:23:42;;;;;;;15.55;5.43;;;13.70;99.90;;;;;;5113749;28;20451;-65
2021/04/13 05:26:10;;;;;;;9.05;6.97;;;13.80;99.90;;;;;;5096749;28;20043;-65
2021/04/13 05:28:38;;;;;;;8.18;5.88;;;13.80;99.90;;;;;;5097033;28;20077;-65
2021/04/13 05:31:06;;;;;;;14.73;5.97;;;13.80;99.90;;;;;;5097008;28;20048;-65
2021/04/13 05:33:34;;;;;;;14.93;6.15;;;13.80;99.90;;;;;;5096873;28;20513;-65
2021/04/13 05:36:02;;;;;;;9.70;6.20;;;13.90;99.90;;;;;;5063262;28;20494;-66
2021/04/13 05:38:33;;;;;;;18.45;6.30;;;13.90;99.90;;;;;;5096533;28;20126;-65
2021/04/13 05:41:06;;;;;;;9.30;6.32;;;14.00;99.90;;;;;;5080832;28;20453;-65
2021/04/13 05:43:36;;;;;;;10.93;5.85;;;13.90;99.90;;;;;;5114710;28;20047;-65
2021/04/13 05:46:03;;;;;;;8.93;5.32;;;13.90;99.90;;;;;;5096690;28;20394;-65
2021/04/13 05:48:31;;;;;;;14.55;7.97;;;14.00;99.90;;;;;;5096779;28;20048;-65
2021/04/13 05:50:59;;;;;;;9.65;6.25;;;13.90;99.90;;;;;;5079396;28;20089;-65
2021/04/13 05:53:27;;;;;;;12.23;6.30;;;13.90;99.90;;;;;;5096520;28;20051;-65
2021/04/13 05:55:56;;;;;;;11.60;6.22;;;13.90;99.90;;;;;;5086978;28;20064;-65
2021/04/13 05:58:27;;;;;;;12.73;5.65;;;13.90;99.90;;;;;;5089508;28;20491;-65
2021/04/13 06:00:57;;;;;;;8.55;5.75;;;13.90;99.90;;;;;;5073015;28;20067;-65
2021/04/13 06:03:25;;;;;;;10.35;5.32;;;13.90;99.90;;;;;;5072722;28;20037;-66
2021/04/13 06:05:56;;;;;;;8.25;6.10;;;14.00;99.90;;;;;;5072409;28;20053;-66
2021/04/13 06:08:24;;;;;;;11.27;6.22;;;14.00;99.90;;;;;;5073900;28;20499;-66
2021/04/13 06:10:53;;;;;;;15.25;5.95;;;14.10;99.90;;;;;;5072310;28;20456;-65
2021/04/13 06:13:24;;;;;;;8.07;5.32;;;14.10;99.90;;;;;;5072638;28;20056;-65
2021/04/13 06:15:54;;;;;;;21.35;5.90;;;14.00;99.90;;;;;;5039388;28;20486;-66
2021/04/13 06:18:23;;;;;;;10.10;5.15;;;14.10;99.90;;;;;;5072379;28;20052;-65
2021/04/13 06:20:52;;;;;;;16.75;4.85;;;14.20;99.90;;;;;;5039559;28;20068;-66
2021/04/13 06:23:24;;;;;;;9.45;5.00;;;14.10;99.90;;;;;;5072547;28;20479;-66
2021/04/13 06:25:54;;;;;;;8.90;5.30;;;14.20;99.90;;;;;;5072588;28;20098;-66
2021/04/13 06:28:25;;;;;;;14.77;5.60;;;14.20;99.90;;;;;;5038795;28;20495;-66
2021/04/13 06:30:53;;;;;;;12.55;5.28;;;14.20;99.90;;;;;;5038895;28;20048;-65
2021/04/13 06:33:28;;;;;;;10.20;6.80;;;14.20;99.90;;;;;;5056059;28;20510;-65
2021/04/13 06:35:59;;;;;;;10.82;5.18;;;14.20;99.90;;;;;;5073130;28;20534;-66
2021/04/13 06:38:37;;;;;;;11.38;5.72;;;14.20;99.90;;;;;;5073001;28;20037;-65
2021/04/13 06:41:33;;;;;;;9.55;6.10;;;14.30;99.90;;;;;;5073028;28;20055;-66
2021/04/13 06:44:13;;;;;;;9.95;6.03;;;14.30;99.90;;;;;;5054939;28;20052;-65
2021/04/13 06:46:41;;;;;;;13.23;6.38;;;14.50;99.90;;;;;;5055425;28;20047;-66
2021/04/13 06:49:58;;;;;;;8.10;5.63;;;14.50;99.90;;;;;;5055258;28;20052;-65
2021/04/13 06:52:49;;;;;;;14.63;6.78;;;14.50;99.90;;;;;;5072088;28;20045;-66
2021/04/13 06:55:53;;;;;;;9.30;5.90;;;14.60;99.90;;;;;;5055069;28;20525;-65
2021/04/13 06:58:57;;;;;;;7.78;4.88;;;14.70;99.90;;;;;;5095779;28;20139;-65
2021/04/13 07:02:03;;;;;;;6.45;5.32;;;14.90;99.90;;;;;;5095559;28;20048;-65
2021/04/13 07:04:59;;;;;;;8.85;6.18;;;15.20;99.90;;;;;;5053411;28;20406;-65
2021/04/13 07:07:40;;;;;;;9.05;4.63;;;15.40;99.90;;;;;;5095596;28;20055;-66
2021/04/13 07:10:18;;;;;;;9.15;4.97;;;15.30;99.90;;;;;;5113376;28;20093;-66
2021/04/13 07:12:55;;;;;;;19.67;5.57;;;15.30;99.90;;;;;;5095233;28;20109;-65
2021/04/13 07:15:38;;;;;;;9.77;5.45;;;15.30;99.90;;;;;;5113732;28;20482;-67
2021/04/13 07:18:42;;;;;;;8.95;4.93;;;15.30;99.90;;;;;;5113186;28;20048;-65
2021/04/13 07:21:25;;;;;;;8.20;4.55;;;15.60;99.90;;;;;;5113024;28;20043;-63
2021/04/13 07:23:59;;;;;;;8.77;4.82;;;15.90;99.90;;;;;;5080681;28;20138;-63
2021/04/13 07:26:42;;;;;;;9.45;5.00;;;15.80;99.90;;;;;;5098824;28;20044;-63
2021/04/13 07:29:24;;;;;;;5.95;3.88;;;15.80;99.90;;;;;;5098944;28;20093;-63
2021/04/13 07:32:19;;;;;;;10.13;4.13;;;15.80;99.90;;;;;;5098971;28;20441;-63
2021/04/13 07:34:57;;;;;;;8.68;4.28;;;15.70;99.90;;;;;;5099011;28;20051;-63
2021/04/13 07:37:45;;;;;;;7.15;4.40;;;15.50;99.90;;;;;;5116920;28;20104;-63
2021/04/13 07:40:49;;;;;;;8.77;4.03;;;15.60;99.90;;;;;;5081520;28;20048;-63
2021/04/13 07:43:34;;;;;;;9.02;4.00;;;15.80;99.90;;;;;;5097884;28;20075;-63
2021/04/13 07:46:26;;;;;;;8.05;4.90;;;16.00;99.90;;;;;;5112631;28;20055;-63
2021/04/13 07:49:15;;;;;;;9.75;3.65;;;16.30;99.90;;;;;;5098762;28;20104;-63
2021/04/13 07:51:46;;;;;;;9.60;3.90;;;16.50;99.90;;;;;;5098488;28;20048;-64
2021/04/13 07:54:37;;;;;;;7.90;3.38;;;16.70;99.90;;;;;;5116839;28;20406;-63
2021/04/13 07:57:38;;;;;;;8.20;3.60;;;16.60;99.90;;;;;;5081937;28;20482;-63
2021/04/13 08:00:09;;;;;;;6.90;3.53;;;16.70;99.90;;;;;;5098310;28;20054;-63
2021/04/13 08:02:45;;;;;;;8.13;3.72;;;16.70;99.90;;;;;;5098973;28;20047;-63
2021/04/13 08:05:13;;;;;;;6.32;3.22;;;16.60;99.90;;;;;;5097914;28;20482;-63
2021/04/13 08:08:18;;;;;;;6.68;3.47;;;16.70;99.90;;;;;;5115244;28;20500;-63
2021/04/13 08:10:49;;;;;;;5.20;3.50;;;16.80;99.90;;;;;;5097255;28;20138;-63
2021/04/13 08:13:31;;;;;;;6.95;3.60;;;16.80;99.90;;;;;;5081070;28;20067;-64
2021/04/13 08:16:05;;;;;;;6.18;3.50;;;16.70;99.90;;;;;;5098639;28;20369;-64
2021/04/13 08:18:39;;;;;;;5.38;3.25;;;16.90;99.90;;;;;;5116039;28;20047;-63
2021/04/13 08:21:32;;;;;;;7.25;3.33;;;17.00;99.90;;;;;;5114818;28;20047;-62
2021/04/13 08:24:00;;;;;;;7.82;4.00;;;17.20;99.90;;;;;;5115741;28;20050;-63
2021/04/13 08:26:29;;;;;;;5.90;3.38;;;17.30;99.90;;;;;;5064897;28;20051;-63
2021/04/13 08:29:23;;;;;;;5.25;3.50;;;17.40;99.90;;;;;;5098166;28;20051;-63
2021/04/13 08:35:14;;;;;;;11.63;4.47;;;17.40;99.90;;;;;;5096914;28;20052;-64
2021/04/13 08:38:20;;;;;;;7.38;3.97;;;17.80;99.90;;;;;;5097502;28;20108;-63
2021/04/13 08:41:14;;;;;;;6.38;3.65;;;17.80;99.90;;;;;;5081531;28;20062;-63
2021/04/13 08:43:51;;;;;;;7.65;3.80;;;17.80;99.90;;;;;;5097686;28;20043;-63
2021/04/13 08:46:46;;;;;;;15.52;6.47;;;17.70;99.90;;;;;;5097432;28;20051;-63
2021/04/13 08:49:22;;;;;;;11.95;5.68;;;17.50;99.90;;;;;;5095977;28;20075;-63
2021/04/13 08:52:15;;;;;;;7.70;4.93;;;17.50;99.90;;;;;;5098167;28;20545;-63
2021/04/13 08:54:50;;;;;;;8.07;2.83;;;17.60;99.90;;;;;;5097173;28;20430;-63
2021/04/13 08:57:36;;;;;;;10.52;3.97;;;17.70;99.90;;;;;;5115004;28;20477;-64
2021/04/13 09:00:37;;;;;;;7.50;3.97;;;18.10;99.90;;;;;;5082020;28;20398;-63
2021/04/13 09:03:10;;;;;;;6.28;2.70;;;18.40;99.90;;;;;;5096977;28;20285;-63
2021/04/13 09:05:42;;;;;;;4.60;2.33;;;18.40;99.90;;;;;;5096967;28;20485;-63
2021/04/13 09:08:16;;;;;;;5.28;2.45;;;18.30;99.90;;;;;;5080152;28;20058;-63
2021/04/13 09:11:08;;;;;;;6.32;2.38;;;18.30;99.90;;;;;;5097440;28;20054;-63
2021/04/13 09:14:05;;;;;;;8.23;3.85;;;18.20;99.90;;;;;;5088164;28;20130;-63
2021/04/13 09:16:58;;;;;;;7.68;3.75;;;17.80;99.90;;;;;;5094483;28;20490;-63
2021/04/13 09:19:35;;;;;;;7.13;3.05;;;17.50;99.90;;;;;;5113928;28;20053;-63
2021/04/13 09:22:26;;;;;;;10.27;3.15;;;17.50;99.90;;;;;;5079678;28;20146;-64
2021/04/13 09:25:38;;;;;;;7.28;2.80;;;17.60;99.90;;;;;;5096358;28;20040;-64
2021/04/13 09:28:19;;;;;;;6.20;3.30;;;17.80;99.90;;;;;;5076328;28;20192;-65
2021/04/13 09:30:50;;;;;;;11.95;3.42;;;17.80;99.90;;;;;;5095681;28;20044;-63
2021/04/13 09:33:21;;;;;;;10.07;5.10;;;17.90;99.90;;;;;;5095930;28;20066;-63
2021/04/13 09:36:26;;;;;;;12.55;4.28;;;17.70;99.90;;;;;;5095874;28;20048;-62
2021/04/13 09:39:21;;;;;;;7.72;3.15;;;17.80;99.90;;;;;;5095871;28;20047;-63
2021/04/13 09:42:16;;;;;;;6.50;3.70;;;18.10;99.90;;;;;;5112400;28;20052;-62
2021/04/13 09:45:08;;;;;;;5.97;3.28;;;18.30;99.90;;;;;;5079451;28;20386;-62
2021/04/13 09:47:59;;;;;;;6.53;3.03;;;18.30;99.90;;;;;;5095349;28;20048;-63
2021/04/13 09:50:50;;;;;;;6.07;2.38;;;18.00;99.90;;;;;;5095418;28;20083;-62
2021/04/13 09:53:43;;;;;;;9.45;2.88;;;17.90;99.90;;;;;;5113368;28;20044;-62
2021/04/13 09:56:36;;;;;;;5.93;2.70;;;17.90;99.90;;;;;;5113087;28;20059;-62
2021/04/13 09:59:42;;;;;;;3.90;2.35;;;18.20;99.90;;;;;;5095072;28;20047;-63
2021/04/13 10:03:11;;;;;;;10.23;2.35;;;18.30;99.90;;;;;;5095178;28;20039;-63
2021/04/13 10:05:51;;;;;;;7.80;3.05;;;18.40;99.90;;;;;;5063709;28;20062;-62
2021/04/13 10:08:41;;;;;;;5.95;3.00;;;18.30;99.90;;;;;;5095072;28;20058;-62
2021/04/13 10:11:11;;;;;;;5.95;2.72;;;18.30;99.90;;;;;;5113121;28;20143;-62
2021/04/13 10:14:11;;;;;;;6.47;2.40;;;18.40;99.90;;;;;;5078094;28;20044;-63
2021/04/13 10:17:00;;;;;;;6.13;2.45;;;18.20;99.90;;;;;;5094449;28;20067;-62
2021/04/13 10:19:46;;;;;;;6.35;3.83;;;18.10;99.90;;;;;;5113090;28;20043;-61
2021/04/13 10:22:56;;;;;;;11.90;4.53;;;18.00;99.90;;;;;;5078954;28;20427;-63
2021/04/13 10:25:39;;;;;;;7.25;3.03;;;17.70;99.90;;;;;;5112852;28;20116;-63
2021/04/13 10:28:29;;;;;;;5.28;2.30;;;17.60;99.90;;;;;;5062349;28;20039;-65
2021/04/13 10:31:21;;;;;;;4.65;2.97;;;17.70;99.90;;;;;;5078334;28;20073;-63
2021/04/13 10:34:31;;;;;;;11.30;2.97;;;17.70;99.90;;;;;;5094569;28;20083;-61
2021/04/13 10:37:09;;;;;;;11.83;4.20;;;17.70;99.90;;;;;;5099534;28;20056;-62
2021/04/13 10:39:40;;;;;;;6.00;3.25;;;17.60;99.90;;;;;;5094868;28;20035;-61
2021/04/13 10:42:54;;;;;;;6.85;3.42;;;17.80;99.90;;;;;;5094913;28;20048;-61
2021/04/13 10:45:43;;;;;;;6.18;2.83;;;18.00;99.90;;;;;;5077722;28;20063;-61
2021/04/13 10:48:55;;;;;;;7.40;2.97;;;18.00;99.90;;;;;;5094749;28;20154;-62
2021/04/13 10:51:58;;;;;;;10.70;3.00;;;18.00;99.90;;;;;;5094740;28;20120;-61
2021/04/13 10:54:59;;;;;;;7.10;2.90;;;17.90;99.90;;;;;;5094317;28;20046;-61
2021/04/13 10:58:09;;;;;;;7.68;3.03;;;17.90;99.90;;;;;;5074866;28;20091;-62
2021/04/13 11:00:58;;;;;;;5.97;3.10;;;18.00;99.90;;;;;;5095575;28;20063;-61
2021/04/13 11:04:23;;;;;;;8.82;3.42;;;17.80;99.90;;;;;;5094934;28;20044;-61
2021/04/13 11:07:19;;;;;;;4.13;2.92;;;17.60;99.90;;;;;;4994464;28;20042;-62
2021/04/13 11:10:23;;;;;;;9.77;3.10;;;17.60;99.90;;;;;;4977908;28;20089;-61
2021/04/13 11:13:06;;;;;;;6.00;3.78;;;17.50;99.90;;;;;;4995974;28;20044;-63
2021/04/13 11:15:52;;;;;;;8.73;3.28;;;17.60;99.90;;;;;;5094518;28;20464;-61
2021/04/13 11:18:45;;;;;;;8.50;4.55;;;17.70;99.90;;;;;;5095133;28;20040;-62
2021/04/13 11:21:37;;;;;;;7.07;2.78;;;17.70;99.90;;;;;;5094742;28;20087;-62
2021/04/13 11:24:37;;;;;;;5.15;3.20;;;17.70;99.90;;;;;;5095820;28;20121;-63
2021/04/13 11:27:20;;;;;;;6.25;4.22;;;17.70;99.90;;;;;;5077550;28;20234;-62
2021/04/13 11:29:57;;;;;;;14.93;4.25;;;17.80;99.90;;;;;;5077992;28;20048;-62
2021/04/13 11:32:51;;;;;;;8.23;3.53;;;17.80;99.90;;;;;;5077527;28;20036;-62
2021/04/13 11:35:42;;;;;;;8.10;3.55;;;18.00;99.90;;;;;;5068976;28;20145;-62
2021/04/13 11:38:18;;;;;;;13.32;4.20;;;17.80;99.90;;;;;;5094805;28;20378;-63
2021/04/13 11:40:56;;;;;;;7.53;3.25;;;17.90;99.90;;;;;;5078085;28;20052;-63
2021/04/13 11:43:25;;;;;;;7.18;3.80;;;17.80;99.90;;;;;;5094570;28;20048;-64
2021/04/13 11:46:14;;;;;;;6.40;3.63;;;17.80;99.90;;;;;;5096075;28;20047;-63
2021/04/13 11:48:56;;;;;;;8.30;3.55;;;17.80;99.90;;;;;;5096257;28;20055;-63
2021/04/13 11:51:42;;;;;;;6.43;3.88;;;17.80;99.90;;;;;;5077618;28;20047;-63
2021/04/13 11:54:37;;;;;;;10.35;3.88;;;17.90;99.90;;;;;;5096074;28;20105;-62
2021/04/13 11:57:23;;;;;;;8.93;3.15;;;17.90;99.90;;;;;;5094342;28;20054;-62
2021/04/13 12:00:21;;;;;;;6.00;3.70;;;18.20;99.90;;;;;;5095655;28;20090;-63
2021/04/13 12:03:21;;;;;;;8.15;3.38;;;18.20;99.90;;;;;;5094324;28;20046;-62
2021/04/13 12:06:03;;;;;;;7.03;3.42;;;18.10;99.90;;;;;;5110179;28;20052;-62
2021/04/13 12:08:34;;;;;;;9.40;3.35;;;17.90;99.90;;;;;;5060886;28;20048;-63
2021/04/13 12:11:07;;;;;;;5.30;3.72;;;17.90;99.90;;;;;;5093433;28;20131;-63
2021/04/13 12:13:49;;;;;;;6.60;3.40;;;17.90;99.90;;;;;;5095043;28;20113;-64
2021/04/13 12:16:48;;;;;;;7.00;4.35;;;17.90;99.90;;;;;;5094038;28;20229;-63
2021/04/13 12:19:22;;;;;;;7.25;3.28;;;17.90;99.90;;;;;;5053250;28;20047;-63
2021/04/13 12:21:56;;;;;;;10.52;4.53;;;17.80;99.90;;;;;;5092232;28;20051;-63
2021/04/13 12:24:39;;;;;;;6.72;4.55;;;17.80;99.90;;;;;;5110743;28;20040;-62
2021/04/13 12:27:34;;;;;;;9.00;3.60;;;17.90;99.90;;;;;;5093636;28;20466;-62
2021/04/13 12:30:26;;;;;;;13.73;4.45;;;17.70;99.90;;;;;;5093700;28;20052;-62
2021/04/13 12:33:36;;;;;;;5.65;3.60;;;17.70;99.90;;;;;;5067242;28;20047;-61
2021/04/13 12:36:42;;;;;;;9.95;5.10;;;17.70;99.90;;;;;;5093596;28;20127;-61
2021/04/13 12:39:31;;;;;;;6.35;3.97;;;17.70;99.90;;;;;;5094311;28;20040;-61
2021/04/13 12:42:10;;;;;;;8.18;4.18;;;17.70;99.90;;;;;;5055539;28;20507;-61
2021/04/13 12:45:08;;;;;;;6.88;4.22;;;17.70;99.90;;;;;;5093404;28;20040;-61
2021/04/13 12:47:38;;;;;;;8.63;4.63;;;17.80;99.90;;;;;;5092699;28;20048;-61
2021/04/13 12:50:55;;;;;;;9.90;4.65;;;17.70;99.90;;;;;;5094331;28;20131;-62
2021/04/13 12:53:30;;;;;;;8.75;4.47;;;17.80;99.90;;;;;;5082652;28;20048;-62
2021/04/13 12:56:46;;;;;;;8.75;5.40;;;18.00;99.90;;;;;;5092870;28;20056;-62
2021/04/13 12:59:19;;;;;;;8.07;4.88;;;18.00;99.90;;;;;;5092741;28;20079;-62
2021/04/13 13:01:49;;;;;;;10.02;4.85;;;17.90;99.90;;;;;;5092958;28;20149;-62
2021/04/13 13:04:35;;;;;;;10.75;4.57;;;17.90;99.90;;;;;;5076166;28;20036;-62
2021/04/13 13:07:06;;;;;;;9.30;4.50;;;18.00;99.90;;;;;;5093404;28;20093;-62
2021/04/13 13:09:46;;;;;;;9.30;4.70;;;18.00;99.90;;;;;;5095056;28;20056;-62
2021/04/13 13:12:32;;;;;;;8.52;3.83;;;17.90;99.90;;;;;;5061262;28;20137;-62
2021/04/13 13:15:14;;;;;;;7.50;3.88;;;17.80;99.90;;;;;;5093655;28;20047;-62
2021/04/13 13:17:53;;;;;;;6.45;5.22;;;17.90;99.90;;;;;;5093825;28;20055;-62
2021/04/13 13:20:42;;;;;;;11.05;5.20;;;17.90;99.90;;;;;;5077174;28;20051;-62
2021/04/13 13:23:35;;;;;;;14.45;6.10;;;18.10;99.90;;;;;;5094700;28;20044;-62
2021/04/13 13:26:25;;;;;;;9.83;4.70;;;18.10;99.90;;;;;;5076272;28;20036;-63
2021/04/13 13:28:55;;;;;;;9.95;5.22;;;18.00;99.90;;;;;;5060906;28;20423;-63
2021/04/13 13:31:26;;;;;;;6.65;4.50;;;18.00;99.90;;;;;;5093400;28;20494;-62
2021/04/13 13:34:41;;;;;;;9.50;5.22;;;18.00;99.90;;;;;;5075974;28;20449;-62
2021/04/13 13:37:16;;;;;;;12.80;5.38;;;18.00;99.90;;;;;;5072973;28;20051;-62
2021/04/13 13:39:47;;;;;;;12.25;5.90;;;18.00;99.90;;;;;;5075096;28;20412;-63
2021/04/13 13:42:26;;;;;;;10.00;6.88;;;17.90;99.90;;;;;;5075327;28;20127;-64
2021/04/13 13:44:59;;;;;;;11.98;6.45;;;17.90;99.90;;;;;;5075569;28;20047;-62
2021/04/13 13:47:30;;;;;;;16.02;6.78;;;18.00;99.90;;;;;;5091843;28;20048;-61
2021/04/13 13:50:17;;;;;;;15.18;6.85;;;18.10;99.90;;;;;;5075146;28;20048;-62
2021/04/13 13:52:51;;;;;;;22.40;6.38;;;18.10;99.90;;;;;;5058848;28;20048;-61
2021/04/13 13:55:44;;;;;;;16.60;7.30;;;18.10;99.90;;;;;;5074422;28;20048;-61
2021/04/13 13:58:14;;;;;;;7.07;5.40;;;18.10;99.90;;;;;;5071141;28;20071;-69